Time;durP1;ratioP1;P1;durP2;ratioP2;P2;SDS_P1;SDS_P2;PMS_P1;PMS_P2;Temp;Humidity;BMP_temperature;BMP_pressure;BME280_temperature;BME280_humidity;BME280_pressure;Samples;Min_cycle;Max_cycle;Signal;HPM_P1;HPM_P2
2023/05/18 00:02:25;;;;;;;1.02;0.60;;;;;;;15.83;91.11;100926.13;4990218;28;20058;-79
2023/05/18 00:04:53;;;;;;;0.80;0.32;;;;;;;15.72;90.62;100927.47;4990235;28;20066;-78
2023/05/18 00:07:21;;;;;;;1.05;0.70;;;;;;;15.77;90.88;100913.56;4992010;28;20411;-78
2023/05/18 00:09:49;;;;;;;0.50;0.30;;;;;;;16.03;89.38;100924.09;4989925;28;20046;-79
2023/05/18 00:12:17;;;;;;;0.85;0.40;;;;;;;15.90;89.52;100924.91;4988884;28;20045;-78
2023/05/18 00:14:45;;;;;;;0.82;0.52;;;;;;;15.94;92.59;100925.97;5021469;28;20058;-78
2023/05/18 00:17:13;;;;;;;0.90;0.35;;;;;;;15.99;92.89;100923.09;4990276;28;20050;-78
2023/05/18 00:19:41;;;;;;;0.70;0.70;;;;;;;16.03;92.83;100913.06;4989997;28;20050;-78
2023/05/18 00:22:09;;;;;;;1.48;0.60;;;;;;;16.02;89.87;100922.47;4990745;28;20069;-78
2023/05/18 00:24:37;;;;;;;1.17;0.40;;;;;;;15.87;89.57;100925.53;4990052;28;20488;-78
2023/05/18 00:27:05;;;;;;;0.32;0.32;;;;;;;15.84;90.03;100918.69;4989909;28;20053;-78
2023/05/18 00:29:33;;;;;;;0.90;0.40;;;;;;;15.82;90.95;100918.16;4988367;28;20503;-77
2023/05/18 00:32:01;;;;;;;0.65;0.60;;;;;;;15.77;91.18;100921.84;4989856;28;20495;-77
2023/05/18 00:34:29;;;;;;;1.30;0.32;;;;;;;15.68;92.31;100918.16;4990157;28;20046;-77
2023/05/18 00:36:57;;;;;;;0.22;0.22;;;;;;;15.74;91.43;100914.16;4988686;28;20113;-77
2023/05/18 00:39:25;;;;;;;0.30;0.30;;;;;;;15.83;90.36;100914.28;4989954;28;20511;-77
2023/05/18 00:41:53;;;;;;;1.40;0.43;;;;;;;15.74;88.27;100919.69;4989863;28;20046;-77
2023/05/18 00:44:21;;;;;;;0.47;0.30;;;;;;;15.67;87.62;100919.28;4989685;28;20050;-77
2023/05/18 00:46:49;;;;;;;0.70;0.38;;;;;;;15.69;87.95;100914.28;4989577;28;20053;-78
2023/05/18 00:49:17;;;;;;;2.90;0.30;;;;;;;15.67;86.30;100913.78;4988539;28;20058;-76
2023/05/18 00:51:45;;;;;;;1.38;0.40;;;;;;;15.83;87.98;100914.28;4989520;28;20051;-77
2023/05/18 00:54:14;;;;;;;2.28;0.35;;;;;;;15.83;87.09;100909.56;4989723;28;20077;-77
2023/05/18 00:56:45;;;;;;;0.43;0.40;;;;;;;16.01;86.13;100915.31;4989759;28;20054;-77
2023/05/18 00:59:15;;;;;;;1.25;0.30;;;;;;;15.78;87.41;100912.44;4988492;28;20050;-77
2023/05/18 01:01:43;;;;;;;0.25;0.22;;;;;;;15.68;87.60;100910.72;4986146;28;20412;-76
2023/05/18 01:04:14;;;;;;;0.30;0.20;;;;;;;15.55;86.65;100904.06;4992834;28;20043;-76
2023/05/18 01:06:42;;;;;;;1.13;0.30;;;;;;;15.64;86.93;100917.94;4993232;28;20046;-76
2023/05/18 01:09:11;;;;;;;0.38;0.38;;;;;;;15.62;87.51;100917.44;4993230;28;20054;-76
2023/05/18 01:12:01;;;;;;;0.28;0.28;;;;;;;15.52;87.08;100921.22;4992776;28;20488;-76
2023/05/18 01:14:51;;;;;;;1.38;0.55;;;;;;;15.55;84.28;100915.09;4991749;28;20046;-76
2023/05/18 01:17:59;;;;;;;0.30;0.30;;;;;;;15.51;84.91;100914.09;4991393;28;20043;-77
2023/05/18 01:20:36;;;;;;;0.35;0.35;;;;;;;15.34;85.58;100922.13;4991469;28;20050;-76
2023/05/18 01:23:28;;;;;;;0.63;0.38;;;;;;;15.45;85.87;100918.06;4992855;28;20053;-76
2023/05/18 01:25:56;;;;;;;0.47;0.47;;;;;;;15.40;84.64;100918.16;4992441;28;20054;-76
2023/05/18 01:28:31;;;;;;;0.35;0.35;;;;;;;15.27;82.20;100923.34;4991599;28;20045;-76
2023/05/18 01:31:00;;;;;;;0.30;0.28;;;;;;;15.25;82.61;100916.50;4991265;28;20103;-77
2023/05/18 01:33:28;;;;;;;1.63;0.40;;;;;;;15.23;83.72;100921.47;4992570;28;20047;-76
2023/05/18 01:35:56;;;;;;;0.20;0.20;;;;;;;15.23;82.68;100916.78;4991095;28;20058;-76
2023/05/18 01:38:27;;;;;;;0.90;0.50;;;;;;;15.26;81.61;100916.19;4992358;28;20042;-76
2023/05/18 01:41:27;;;;;;;0.28;0.28;;;;;;;15.27;81.18;100914.25;4991056;28;20046;-76
2023/05/18 01:44:17;;;;;;;0.90;0.50;;;;;;;15.34;81.75;100909.16;4976423;28;20063;-77
2023/05/18 01:47:07;;;;;;;0.85;0.50;;;;;;;15.40;81.44;100909.88;4992072;28;20053;-76
2023/05/18 01:49:39;;;;;;;1.42;0.30;;;;;;;15.32;81.11;100906.69;4992028;28;20527;-78
2023/05/18 01:52:17;;;;;;;0.32;0.28;;;;;;;15.25;80.23;100911.78;4992016;28;20526;-78
2023/05/18 01:54:56;;;;;;;0.77;0.38;;;;;;;15.26;78.87;100912.63;5092269;28;20050;-77
2023/05/18 01:57:28;;;;;;;0.90;0.35;;;;;;;15.16;79.47;100916.38;4992302;28;20054;-76
2023/05/18 02:00:01;;;;;;;0.88;0.40;;;;;;;15.16;79.05;100919.94;4991432;28;20046;-76
2023/05/18 02:02:43;;;;;;;1.50;0.40;;;;;;;15.25;79.61;100911.78;4991412;28;20054;-77
2023/05/18 02:05:14;;;;;;;2.00;0.40;;;;;;;15.30;79.67;100919.16;4990481;28;20405;-76
2023/05/18 02:07:42;;;;;;;3.40;0.73;;;;;;;15.23;79.21;100913.22;4990610;28;20049;-76
2023/05/18 02:10:11;;;;;;;4.38;0.45;;;;;;;15.39;79.71;100911.00;5006675;28;20057;-77
2023/05/18 02:12:39;;;;;;;1.52;0.68;;;;;;;15.38;80.46;100906.59;4991318;28;20125;-77
2023/05/18 02:15:09;;;;;;;0.73;0.30;;;;;;;15.33;79.75;100896.50;4989880;28;20050;-76
2023/05/18 02:17:37;;;;;;;0.57;0.57;;;;;;;15.16;81.69;100911.66;4991642;28;20047;-77
2023/05/18 02:20:09;;;;;;;0.63;0.57;;;;;;;15.23;80.11;100903.00;4990298;28;20047;-76
2023/05/18 02:22:37;;;;;;;2.72;0.40;;;;;;;15.10;81.11;100907.38;4991916;28;20058;-76
2023/05/18 02:25:06;;;;;;;0.40;0.32;;;;;;;15.12;80.37;100909.81;4992169;28;20062;-76
2023/05/18 02:27:35;;;;;;;1.88;0.50;;;;;;;15.14;80.57;100896.56;4991697;28;20042;-76
2023/05/18 02:30:04;;;;;;;0.75;0.40;;;;;;;15.09;79.41;100902.97;4990606;28;20031;-77
2023/05/18 02:32:37;;;;;;;0.55;0.40;;;;;;;15.08;79.61;100901.34;5022273;28;20400;-77
2023/05/18 02:35:07;;;;;;;1.83;0.45;;;;;;;15.14;79.34;100910.34;4991970;28;20358;-77
2023/05/18 02:37:38;;;;;;;1.15;0.50;;;;;;;15.20;79.62;100909.13;4991757;28;20484;-78
2023/05/18 02:40:11;;;;;;;0.75;0.65;;;;;;;15.44;79.42;100903.44;5023062;28;20038;-77
2023/05/18 02:42:41;;;;;;;0.70;0.70;;;;;;;15.37;80.37;100902.22;5022952;28;20050;-77
2023/05/18 02:45:10;;;;;;;1.80;0.50;;;;;;;15.25;78.86;100911.00;5023171;28;20289;-76
2023/05/18 02:47:39;;;;;;;0.30;0.30;;;;;;;15.26;80.31;100907.09;4990390;28;20050;-77
2023/05/18 02:50:08;;;;;;;2.20;0.50;;;;;;;15.21;79.71;100912.72;4991413;28;20042;-76
2023/05/18 02:52:36;;;;;;;0.38;0.38;;;;;;;15.27;79.75;100904.06;5022239;28;20062;-77
2023/05/18 02:55:05;;;;;;;1.67;0.70;;;;;;;15.28;78.02;100911.19;4991431;28;20050;-77
2023/05/18 02:57:55;;;;;;;1.17;0.60;;;;;;;15.40;78.11;100896.09;4991489;28;20042;-77
2023/05/18 03:00:40;;;;;;;0.77;0.52;;;;;;;15.43;78.42;100901.81;4989911;28;20050;-77
2023/05/18 03:03:09;;;;;;;0.50;0.50;;;;;;;15.46;78.80;100911.41;5022549;28;20047;-77
2023/05/18 03:05:37;;;;;;;0.50;0.50;;;;;;;15.43;78.51;100910.09;5022694;28;20062;-77
2023/05/18 03:08:09;;;;;;;0.68;0.60;;;;;;;15.50;76.77;100906.91;4989753;28;20054;-77
2023/05/18 03:10:37;;;;;;;0.95;0.60;;;;;;;15.53;78.48;100899.97;4990986;28;20061;-77
2023/05/18 03:13:05;;;;;;;1.23;0.55;;;;;;;15.44;79.04;100903.44;4989730;28;20054;-77
2023/05/18 03:15:32;;;;;;;0.68;0.50;;;;;;;15.44;78.34;100903.44;4991189;28;20054;-77
2023/05/18 03:18:00;;;;;;;0.95;0.60;;;;;;;15.41;78.15;100911.50;5022449;28;20045;-77
2023/05/18 03:20:30;;;;;;;1.20;0.63;;;;;;;15.58;77.70;100911.72;5022341;28;20050;-77
2023/05/18 03:22:58;;;;;;;0.93;0.60;;;;;;;15.65;77.08;100908.53;5022031;28;20057;-77
2023/05/18 03:25:26;;;;;;;0.95;0.60;;;;;;;15.55;76.70;100915.09;5021210;28;20057;-77
2023/05/18 03:27:55;;;;;;;1.70;0.70;;;;;;;15.31;77.66;100913.31;4991009;28;20053;-77
2023/05/18 03:30:24;;;;;;;1.25;0.70;;;;;;;15.29;78.42;100912.81;5021629;28;20054;-77
2023/05/18 03:32:52;;;;;;;1.08;0.63;;;;;;;15.31;78.27;100907.81;4990100;28;20051;-77
2023/05/18 03:35:20;;;;;;;1.70;0.63;;;;;;;15.29;77.98;100917.50;4989175;28;20047;-77
2023/05/18 03:37:48;;;;;;;0.93;0.77;;;;;;;15.31;78.86;100916.09;4990329;28;20050;-77
2023/05/18 03:40:18;;;;;;;1.35;1.20;;;;;;;15.41;79.83;100920.59;4989624;28;20057;-77
2023/05/18 03:42:46;;;;;;;0.82;0.73;;;;;;;15.39;79.31;100922.84;4988807;28;20046;-77
2023/05/18 03:45:14;;;;;;;2.03;0.70;;;;;;;15.44;79.90;100916.41;4989706;28;20408;-78
2023/05/18 03:47:43;;;;;;;0.88;0.73;;;;;;;15.40;77.57;100926.44;5004073;28;20047;-77
2023/05/18 03:50:11;;;;;;;0.80;0.80;;;;;;;15.21;78.76;100923.72;4988408;28;20061;-77
2023/05/18 03:52:40;;;;;;;1.17;0.70;;;;;;;15.22;77.98;100917.94;4988346;28;20055;-77
2023/05/18 03:55:08;;;;;;;2.45;0.60;;;;;;;15.04;77.89;100923.19;4989285;28;20050;-77
2023/05/18 03:57:36;;;;;;;1.77;0.63;;;;;;;15.12;77.38;100923.59;4990363;28;20054;-77
2023/05/18 04:00:11;;;;;;;1.30;0.85;;;;;;;15.05;76.70;100927.56;4989074;28;20121;-78
2023/05/18 04:02:50;;;;;;;5.75;0.75;;;;;;;15.02;77.23;100935.63;4990088;28;20046;-77
2023/05/18 04:05:23;;;;;;;0.80;0.40;;;;;;;14.88;77.36;100930.91;5021944;28;20046;-77
2023/05/18 04:07:51;;;;;;;0.85;0.85;;;;;;;15.01;77.13;100929.28;5021456;28;20427;-77
2023/05/18 04:10:20;;;;;;;0.43;0.40;;;;;;;14.93;76.54;100930.00;5021733;28;20049;-77
2023/05/18 04:12:48;;;;;;;0.63;0.50;;;;;;;15.15;77.68;100934.84;4988954;28;20073;-77
2023/05/18 04:15:16;;;;;;;1.05;0.45;;;;;;;15.04;76.01;100939.72;4989115;28;20058;-77
2023/05/18 04:17:44;;;;;;;0.77;0.77;;;;;;;15.23;76.55;100938.03;4990352;28;20050;-77
2023/05/18 04:20:13;;;;;;;0.68;0.57;;;;;;;15.28;75.12;100935.19;4990212;28;20396;-77
2023/05/18 04:22:46;;;;;;;5.35;0.95;;;;;;;15.30;74.22;100942.03;4989658;28;20053;-78
2023/05/18 04:25:17;;;;;;;0.75;0.75;;;;;;;15.23;76.21;100938.84;5021127;28;20042;-76
2023/05/18 04:27:49;;;;;;;3.38;0.35;;;;;;;15.40;73.19;100946.53;4990160;28;20489;-76
2023/05/18 04:30:21;;;;;;;1.60;0.50;;;;;;;15.41;73.24;100942.66;5020456;28;20050;-78
2023/05/18 04:32:50;;;;;;;1.05;0.60;;;;;;;15.88;73.95;100952.00;4989485;28;20042;-83
2023/05/18 04:35:18;;;;;;;2.50;0.68;;;;;;;16.11;72.77;100962.03;4990071;28;20053;-83
2023/05/18 04:37:46;;;;;;;1.15;0.93;;;;;;;16.36;71.45;100950.72;5073682;28;20061;-83
2023/05/18 04:40:17;;;;;;;1.55;0.75;;;;;;;16.57;69.93;100959.38;4988120;28;20076;-83
2023/05/18 04:42:47;;;;;;;1.23;0.98;;;;;;;16.60;69.41;100969.81;4988505;28;20065;-83
2023/05/18 04:45:26;;;;;;;1.30;1.02;;;;;;;16.59;68.42;100962.66;5005263;28;20504;-83
2023/05/18 04:47:57;;;;;;;2.33;0.73;;;;;;;16.62;67.12;100972.28;5004709;28;20410;-83
2023/05/18 04:50:26;;;;;;;0.73;0.57;;;;;;;16.71;67.87;100977.88;4989195;28;20493;-83
2023/05/18 04:52:56;;;;;;;0.52;0.52;;;;;;;16.77;67.08;100977.41;4972127;28;20047;-84
2023/05/18 04:55:26;;;;;;;1.15;0.60;;;;;;;16.86;68.43;100979.47;5020942;28;20061;-83
2023/05/18 04:58:00;;;;;;;1.85;0.60;;;;;;;16.68;67.90;100981.25;4988063;28;20061;-84
2023/05/18 05:00:29;;;;;;;1.45;0.52;;;;;;;16.72;66.38;100979.50;4988395;28;20392;-83
2023/05/18 05:02:58;;;;;;;2.22;0.55;;;;;;;16.78;64.64;100978.25;4987535;28;20057;-82
2023/05/18 05:05:26;;;;;;;0.80;0.60;;;;;;;16.73;64.44;100986.66;5090554;28;20070;-82
2023/05/18 05:07:54;;;;;;;0.57;0.57;;;;;;;16.81;66.39;100990.63;5052849;28;20051;-82
2023/05/18 05:10:23;;;;;;;0.80;0.70;;;;;;;16.81;67.18;100999.72;4985730;28;20042;-82
2023/05/18 05:12:51;;;;;;;0.60;0.60;;;;;;;16.81;66.43;100999.72;4989623;28;20054;-82
2023/05/18 05:15:19;;;;;;;1.38;0.73;;;;;;;16.86;67.25;100994.06;4989177;28;20047;-82
2023/05/18 05:17:50;;;;;;;0.63;0.57;;;;;;;16.85;66.38;100997.97;4987621;28;20057;-82
2023/05/18 05:20:18;;;;;;;1.15;0.80;;;;;;;16.90;65.61;101005.31;4985433;28;20381;-82
2023/05/18 05:22:46;;;;;;;1.05;0.73;;;;;;;17.01;66.00;101000.38;4987964;28;20050;-82
2023/05/18 05:25:20;;;;;;;1.60;0.90;;;;;;;16.84;63.85;101004.63;4984110;28;20041;-81
2023/05/18 05:27:48;;;;;;;0.70;0.70;;;;;;;16.91;63.70;101013.31;5006946;28;20046;-82
2023/05/18 05:30:19;;;;;;;0.50;0.47;;;;;;;17.03;65.46;101015.56;5007914;28;20514;-82
2023/05/18 05:32:47;;;;;;;4.85;0.82;;;;;;;17.01;65.77;101008.69;4991723;28;20042;-82
2023/05/18 05:35:15;;;;;;;1.23;0.70;;;;;;;16.86;62.49;101016.19;4987957;28;20040;-82
2023/05/18 05:37:44;;;;;;;1.35;0.82;;;;;;;16.99;61.02;101014.50;4989214;28;20058;-83
2023/05/18 05:40:12;;;;;;;4.40;0.90;;;;;;;16.75;61.52;101023.91;4989494;28;20046;-82
2023/05/18 05:42:43;;;;;;;1.88;0.75;;;;;;;16.89;64.02;101007.28;4987873;28;20058;-82
2023/05/18 05:45:12;;;;;;;1.27;0.60;;;;;;;16.96;64.54;101014.31;4988263;28;20655;-83
2023/05/18 05:47:54;;;;;;;0.70;0.70;;;;;;;16.90;62.90;101010.84;4988244;28;20043;-83
2023/05/18 05:50:23;;;;;;;0.60;0.55;;;;;;;16.95;61.75;101018.22;4990946;28;20046;-83
2023/05/18 05:52:53;;;;;;;1.20;0.77;;;;;;;17.08;61.32;101028.44;4991224;28;20057;-83
2023/05/18 05:55:23;;;;;;;1.00;0.90;;;;;;;17.15;63.26;101027.97;4991405;28;20499;-83
2023/05/18 05:57:52;;;;;;;2.28;0.80;;;;;;;17.16;62.47;101027.69;4991377;28;20058;-82
2023/05/18 06:00:22;;;;;;;2.25;0.70;;;;;;;17.18;60.07;101025.44;4959602;28;20392;-83
2023/05/18 06:02:54;;;;;;;1.17;0.65;;;;;;;17.25;59.61;101030.50;4974592;28;20058;-83
2023/05/18 06:05:43;;;;;;;1.63;0.68;;;;;;;17.26;59.37;101034.09;4974977;28;20050;-83
2023/05/18 06:08:14;;;;;;;2.65;0.50;;;;;;;17.17;60.59;101031.28;4974784;28;20161;-83
2023/05/18 06:10:42;;;;;;;0.80;0.50;;;;;;;17.26;60.50;101034.09;4958780;28;20081;-83
2023/05/18 06:13:11;;;;;;;0.95;0.50;;;;;;;17.44;60.74;101038.63;4958691;28;20054;-83
2023/05/18 06:15:45;;;;;;;3.78;1.05;;;;;;;17.56;61.15;101045.53;4974620;28;20813;-83
2023/05/18 06:18:14;;;;;;;0.60;0.60;;;;;;;17.59;60.07;101034.63;4974406;28;20055;-83
2023/05/18 06:20:44;;;;;;;0.73;0.65;;;;;;;17.60;59.24;101038.22;4958862;28;20061;-83
2023/05/18 06:23:14;;;;;;;1.35;0.40;;;;;;;17.58;59.60;101044.06;4974607;28;20051;-83
2023/05/18 06:26:13;;;;;;;1.98;0.70;;;;;;;17.51;59.05;101040.13;4973791;28;20381;-83
2023/05/18 06:29:10;;;;;;;1.88;0.98;;;;;;;17.44;59.56;101048.84;4990925;28;20065;-83
2023/05/18 06:31:59;;;;;;;2.28;0.93;;;;;;;17.48;58.39;101041.56;5029434;28;20054;-83
2023/05/18 06:34:36;;;;;;;1.20;0.73;;;;;;;17.67;61.16;101041.34;4959751;28;20050;-83
2023/05/18 06:37:05;;;;;;;0.40;0.40;;;;;;;17.79;58.85;101051.03;4958544;28;20050;-83
2023/05/18 06:39:33;;;;;;;2.28;0.98;;;;;;;17.85;59.06;101055.28;4974071;28;20511;-83
2023/05/18 06:42:01;;;;;;;1.40;0.43;;;;;;;17.85;55.94;101049.75;4958154;28;20404;-83
2023/05/18 06:44:34;;;;;;;1.17;0.60;;;;;;;18.04;56.94;101048.69;4958648;28;20408;-82
2023/05/18 06:47:17;;;;;;;1.23;0.40;;;;;;;18.00;52.36;101065.13;5048108;28;20058;-82
2023/05/18 06:49:45;;;;;;;0.88;0.55;;;;;;;17.93;51.91;101051.72;4973857;28;20058;-83
2023/05/18 06:52:14;;;;;;;1.20;0.68;;;;;;;17.92;52.86;101049.28;4973726;28;20057;-83
2023/05/18 06:54:44;;;;;;;2.03;0.50;;;;;;;17.93;53.90;101040.66;4973986;28;20046;-83
2023/05/18 06:57:12;;;;;;;0.57;0.57;;;;;;;17.99;54.25;101046.88;4953758;28;20401;-82
2023/05/18 06:59:40;;;;;;;1.67;0.68;;;;;;;17.94;53.77;101033.97;4969202;28;20055;-83
2023/05/18 07:02:08;;;;;;;1.25;0.82;;;;;;;18.15;55.24;101035.41;5069369;28;20047;-83
2023/05/18 07:04:36;;;;;;;1.48;0.50;;;;;;;18.31;54.33;101035.75;4952938;28;20051;-82
2023/05/18 07:07:06;;;;;;;0.40;0.40;;;;;;;17.95;48.35;101040.34;5036099;28;20046;-83
2023/05/18 07:09:35;;;;;;;0.68;0.45;;;;;;;18.01;49.25;101041.84;4970601;28;20053;-83
2023/05/18 07:12:04;;;;;;;3.25;0.65;;;;;;;18.02;50.44;101048.22;4970511;28;20054;-83
2023/05/18 07:14:32;;;;;;;0.43;0.43;;;;;;;18.24;53.63;101050.09;5071456;28;20532;-82
2023/05/18 07:17:00;;;;;;;0.82;0.38;;;;;;;18.36;52.18;101035.63;4954146;28;20066;-83
2023/05/18 07:19:28;;;;;;;1.02;0.50;;;;;;;18.36;51.22;101030.91;4970463;28;20051;-83
2023/05/18 07:21:58;;;;;;;3.15;0.95;;;;;;;18.40;51.66;101036.63;4970531;28;20519;-83
2023/05/18 07:24:26;;;;;;;0.68;0.57;;;;;;;18.31;49.11;101046.84;5071505;28;20047;-83
2023/05/18 07:26:54;;;;;;;2.08;0.70;;;;;;;18.30;50.42;101036.91;4970433;28;20051;-83
2023/05/18 07:29:24;;;;;;;2.00;0.57;;;;;;;18.29;50.32;101035.28;5038285;28;20054;-82
2023/05/18 07:31:52;;;;;;;0.50;0.50;;;;;;;18.30;51.09;101036.91;4970168;28;20043;-83
2023/05/18 07:34:20;;;;;;;0.80;0.68;;;;;;;18.29;51.24;101046.34;4953851;28;20054;-82
2023/05/18 07:36:48;;;;;;;0.80;0.60;;;;;;;18.54;50.95;101025.41;5037913;28;20054;-83
2023/05/18 07:39:20;;;;;;;1.20;0.47;;;;;;;18.51;49.55;101037.94;5037970;28;20061;-83
2023/05/18 07:41:49;;;;;;;3.17;0.63;;;;;;;18.56;51.32;101027.84;4970183;28;20386;-83
2023/05/18 07:44:20;;;;;;;0.70;0.70;;;;;;;18.61;51.06;101036.81;5071114;28;20050;-83
2023/05/18 07:46:49;;;;;;;1.05;0.60;;;;;;;18.55;49.33;101040.88;4986290;28;20043;-82
2023/05/18 07:49:17;;;;;;;0.40;0.40;;;;;;;18.57;49.35;101035.03;4969639;28;20066;-82
2023/05/18 07:51:45;;;;;;;1.70;0.85;;;;;;;18.57;47.84;101023.94;5036998;28;20051;-82
2023/05/18 07:54:13;;;;;;;0.70;0.70;;;;;;;18.69;50.41;101037.16;4969603;28;20050;-83
2023/05/18 07:56:43;;;;;;;0.57;0.57;;;;;;;18.83;49.19;101039.78;4986047;28;20062;-83
2023/05/18 07:59:11;;;;;;;0.93;0.40;;;;;;;18.60;51.37;101034.38;5053978;28;20058;-81
2023/05/18 08:01:40;;;;;;;0.88;0.45;;;;;;;18.62;48.65;101027.34;4969628;28;20075;-81
2023/05/18 08:04:08;;;;;;;4.15;0.40;;;;;;;18.76;49.07;101026.38;5071010;28;20046;-82
2023/05/18 08:06:37;;;;;;;0.98;0.80;;;;;;;18.78;47.65;101033.25;5054576;28;20043;-83
2023/05/18 08:09:05;;;;;;;1.15;0.57;;;;;;;18.91;49.31;101022.31;4969997;28;20054;-82
2023/05/18 08:11:35;;;;;;;1.55;0.70;;;;;;;18.78;46.94;101019.38;4969456;28;20054;-82
2023/05/18 08:14:04;;;;;;;0.68;0.45;;;;;;;18.87;48.14;101022.16;5053317;28;20051;-81
2023/05/18 08:16:35;;;;;;;1.00;0.63;;;;;;;18.63;48.08;101028.19;4969471;28;20046;-82
2023/05/18 08:19:04;;;;;;;0.75;0.60;;;;;;;18.91;49.75;101017.59;5069976;28;20066;-82
2023/05/18 08:21:33;;;;;;;1.05;0.65;;;;;;;18.94;49.83;101024.44;4969486;28;20390;-82
2023/05/18 08:24:02;;;;;;;1.10;0.60;;;;;;;18.84;47.32;101022.00;4969430;28;20059;-83
2023/05/18 08:26:30;;;;;;;2.13;0.80;;;;;;;19.00;49.14;101014.81;5070458;28;20382;-83
2023/05/18 08:28:58;;;;;;;0.68;0.50;;;;;;;19.04;48.00;101021.38;4969639;28;20065;-83
2023/05/18 08:31:26;;;;;;;1.25;0.70;;;;;;;19.22;50.04;101020.53;4954303;28;20062;-83
2023/05/18 08:33:55;;;;;;;1.23;0.60;;;;;;;19.34;49.78;101023.47;4969152;28;20047;-83
2023/05/18 08:36:23;;;;;;;1.13;0.88;;;;;;;19.41;49.19;101022.97;4969211;28;20051;-82
2023/05/18 08:38:52;;;;;;;0.52;0.52;;;;;;;19.52;50.97;101017.88;5037039;28;20062;-83
2023/05/18 08:41:31;;;;;;;0.90;0.70;;;;;;;19.47;47.57;101014.13;5069432;28;20071;-83
2023/05/18 08:44:07;;;;;;;3.50;1.10;;;;;;;19.43;48.45;101015.13;5037212;28;20051;-82
2023/05/18 08:46:39;;;;;;;3.28;1.15;;;;;;;19.54;50.21;101010.00;5036739;28;20057;-82
2023/05/18 08:49:09;;;;;;;1.95;0.47;;;;;;;19.59;48.89;101007.06;5036381;28;20051;-82
2023/05/18 08:51:42;;;;;;;1.77;0.68;;;;;;;19.66;49.54;101015.72;5069427;28;20062;-81
2023/05/18 08:54:14;;;;;;;3.42;0.80;;;;;;;19.68;50.49;101007.88;5069411;28;20047;-82
2023/05/18 08:56:45;;;;;;;0.70;0.70;;;;;;;19.88;51.02;101011.88;5035475;28;20062;-82
2023/05/18 08:59:21;;;;;;;1.20;0.90;;;;;;;19.88;49.03;101011.88;5069101;28;20525;-82
2023/05/18 09:01:50;;;;;;;0.98;0.75;;;;;;;19.84;47.36;101018.44;4969202;28;20058;-82
2023/05/18 09:04:20;;;;;;;1.95;0.82;;;;;;;19.69;48.17;101005.88;5069799;28;20054;-82
2023/05/18 09:06:50;;;;;;;0.82;0.73;;;;;;;19.83;49.14;101005.69;5035849;28;20062;-82
2023/05/18 09:09:20;;;;;;;0.98;0.90;;;;;;;19.91;47.63;101006.78;4952688;28;20413;-81
2023/05/18 09:11:49;;;;;;;2.08;1.00;;;;;;;20.22;49.97;101019.56;4952860;28;20043;-81
2023/05/18 09:14:17;;;;;;;2.00;1.10;;;;;;;20.08;48.13;101009.50;4952906;28;20058;-82
2023/05/18 09:16:45;;;;;;;0.80;0.80;;;;;;;20.19;49.38;101017.47;4969084;28;20047;-81
2023/05/18 09:19:14;;;;;;;1.80;1.00;;;;;;;20.20;49.68;101013.53;4969104;28;20059;-81
2023/05/18 09:21:42;;;;;;;1.38;0.73;;;;;;;20.13;48.01;101014.06;4952483;28;20051;-82
2023/05/18 09:24:10;;;;;;;1.13;0.93;;;;;;;19.92;47.91;101019.53;4970782;28;20051;-82
2023/05/18 09:26:39;;;;;;;1.00;0.90;;;;;;;19.75;49.60;101004.59;5072653;28;20054;-82
2023/05/18 09:29:18;;;;;;;2.63;0.73;;;;;;;19.97;50.19;101011.03;4972304;28;20062;-82
2023/05/18 09:31:47;;;;;;;1.13;0.73;;;;;;;20.17;48.96;101012.25;5073525;28;20055;-82
2023/05/18 09:34:18;;;;;;;1.20;1.10;;;;;;;20.37;48.95;101024.56;5039258;28;20059;-82
2023/05/18 09:36:55;;;;;;;1.67;0.80;;;;;;;20.44;48.57;101012.09;4955965;28;20058;-82
2023/05/18 09:39:24;;;;;;;1.73;1.13;;;;;;;20.18;49.67;101007.53;4971562;28;20068;-82
2023/05/18 09:41:56;;;;;;;1.48;0.90;;;;;;;20.48;50.11;101018.63;4971910;28;20405;-82
2023/05/18 09:44:30;;;;;;;0.80;0.80;;;;;;;20.59;50.19;101005.94;4971938;28;20055;-82
2023/05/18 09:47:00;;;;;;;2.17;0.77;;;;;;;20.63;48.45;101020.78;5073004;28;20051;-82
2023/05/18 09:49:32;;;;;;;1.17;0.80;;;;;;;20.86;49.48;101019.69;5072904;28;20050;-83
2023/05/18 09:52:00;;;;;;;1.17;0.90;;;;;;;20.69;47.41;101018.63;4971800;28;20416;-84
2023/05/18 09:54:29;;;;;;;1.52;0.88;;;;;;;20.66;46.89;101036.81;4971790;28;20051;-83
2023/05/18 09:56:57;;;;;;;1.30;0.73;;;;;;;20.44;48.25;101037.13;4971985;28;20061;-83
2023/05/18 09:59:37;;;;;;;1.50;0.70;;;;;;;20.58;49.32;101040.44;5041445;28;20065;-83
2023/05/18 10:02:07;;;;;;;0.80;0.70;;;;;;;20.54;47.53;101037.53;5040118;28;20047;-83
2023/05/18 10:04:42;;;;;;;2.00;1.13;;;;;;;20.63;48.85;101043.03;5038507;28;20042;-83
2023/05/18 10:07:15;;;;;;;1.25;0.70;;;;;;;20.75;47.44;101028.41;5073082;28;20413;-83
2023/05/18 10:09:45;;;;;;;2.67;0.77;;;;;;;20.80;47.38;101030.16;5072791;28;20046;-84
2023/05/18 10:12:14;;;;;;;1.55;0.70;;;;;;;21.05;48.99;101033.91;5039335;28;20059;-84
2023/05/18 10:14:44;;;;;;;3.15;0.80;;;;;;;20.92;46.37;101038.59;5038772;28;20055;-84
2023/05/18 10:17:14;;;;;;;1.52;0.85;;;;;;;20.84;48.53;101036.66;4970449;28;20059;-82
2023/05/18 10:19:45;;;;;;;1.67;1.02;;;;;;;20.82;47.54;101036.19;4987385;28;20047;-82
2023/05/18 10:22:19;;;;;;;1.13;0.93;;;;;;;20.81;48.13;101031.78;5057909;28;20042;-81
2023/05/18 10:24:51;;;;;;;1.00;1.00;;;;;;;21.01;47.26;101034.94;4973479;28;20049;-81
2023/05/18 10:27:26;;;;;;;2.53;0.93;;;;;;;20.86;47.47;101031.59;4986931;28;20054;-82
2023/05/18 10:29:57;;;;;;;4.03;0.70;;;;;;;21.14;47.87;101036.63;4958088;28;20401;-82
2023/05/18 10:32:28;;;;;;;1.40;1.08;;;;;;;21.03;48.37;101022.31;4973100;28;20050;-82
2023/05/18 10:34:58;;;;;;;0.77;0.70;;;;;;;21.05;48.49;101028.34;4973118;28;20046;-82
2023/05/18 10:37:30;;;;;;;1.13;0.98;;;;;;;21.07;47.84;101026.03;4988817;28;20053;-81
2023/05/18 10:40:00;;;;;;;1.50;0.93;;;;;;;20.86;48.10;101011.34;5058873;28;20058;-80
2023/05/18 10:42:31;;;;;;;3.13;0.80;;;;;;;21.03;45.85;101011.19;4972797;28;20575;-81
2023/05/18 10:45:00;;;;;;;1.45;0.70;;;;;;;21.17;47.97;101010.88;4971384;28;20046;-81
2023/05/18 10:47:30;;;;;;;1.45;1.00;;;;;;;21.11;47.07;101014.22;4990126;28;20046;-82
2023/05/18 10:50:00;;;;;;;1.10;0.88;;;;;;;21.11;48.55;101003.09;4989730;28;20054;-82
2023/05/18 10:52:31;;;;;;;2.70;1.08;;;;;;;21.32;48.45;101011.41;5057843;28;20374;-82
2023/05/18 10:55:00;;;;;;;1.73;1.00;;;;;;;21.07;46.06;101000.19;4986681;28;20433;-82
2023/05/18 10:57:58;;;;;;;2.00;1.00;;;;;;;21.31;47.44;101009.78;5064891;28;20046;-81
2023/05/18 11:00:26;;;;;;;1.25;0.98;;;;;;;20.93;47.68;101006.84;4999333;28;20497;-80
2023/05/18 11:02:55;;;;;;;2.13;1.33;;;;;;;21.15;47.44;101010.41;4982762;28;20046;-82
2023/05/18 11:05:24;;;;;;;4.25;1.20;;;;;;;21.12;47.07;100999.94;4986813;28;20408;-81
2023/05/18 11:08:04;;;;;;;1.30;1.20;;;;;;;21.44;47.01;101011.44;5055642;28;20055;-82
2023/05/18 11:10:42;;;;;;;1.60;1.42;;;;;;;21.62;46.65;101002.88;5088302;28;20512;-82
2023/05/18 11:13:12;;;;;;;1.30;1.20;;;;;;;21.55;45.94;101009.00;5099306;27;20069;-82
2023/05/18 11:15:53;;;;;;;1.05;0.95;;;;;;;21.66;46.74;101008.56;5005066;28;20057;-82
2023/05/18 11:18:41;;;;;;;3.20;1.17;;;;;;;21.70;46.96;101007.56;5005489;28;20055;-81
2023/05/18 11:21:28;;;;;;;1.23;1.13;;;;;;;21.51;46.13;101021.19;4996120;28;20043;-81
2023/05/18 11:24:22;;;;;;;2.15;1.42;;;;;;;21.36;47.18;101017.88;4977088;28;20055;-81
2023/05/18 11:26:52;;;;;;;2.72;1.35;;;;;;;21.46;45.38;101016.66;5061213;28;20052;-81
2023/05/18 11:29:29;;;;;;;1.30;1.20;;;;;;;21.60;47.88;101008.78;4986069;28;20493;-81
2023/05/18 11:31:57;;;;;;;1.55;1.25;;;;;;;21.66;47.29;101014.97;4985595;28;20043;-82
2023/05/18 11:34:48;;;;;;;1.70;1.33;;;;;;;21.90;46.56;101001.44;4954467;28;20047;-82
2023/05/18 11:37:37;;;;;;;1.67;1.38;;;;;;;21.82;46.52;101008.72;5053658;28;20050;-81
2023/05/18 11:40:12;;;;;;;1.75;1.20;;;;;;;21.40;47.04;101010.47;5054690;28;20050;-80
2023/05/18 11:42:40;;;;;;;2.13;1.50;;;;;;;21.59;45.58;101003.56;4992629;28;20489;-81
2023/05/18 11:45:10;;;;;;;1.70;1.60;;;;;;;21.69;46.28;101008.69;4986113;28;20051;-80